Time;durP1;ratioP1;P1;durP2;ratioP2;P2;SDS_P1;SDS_P2;PMS_P1;PMS_P2;Temp;Humidity;BMP_temperature;BMP_pressure;BME280_temperature;BME280_humidity;BME280_pressure;Samples;Min_cycle;Max_cycle;Signal;HPM_P1;HPM_P2
2023/10/06 00:02:28;;;;;;;;;;;;;;;10.34;92.22;101010.24;107641;275;95341;-53
2023/10/06 00:05:11;;;;;;;;;;;;;;;10.27;92.18;101012.52;107677;275;95633;-52
2023/10/06 00:07:45;;;;;;;;;;;;;;;10.22;92.28;101015.58;107681;275;120176;-53
2023/10/06 00:10:26;;;;;;;;;;;;;;;10.20;92.23;101017.26;107643;275;105722;-54
2023/10/06 00:12:59;;;;;;;;;;;;;;;10.16;92.19;101018.41;107661;275;114413;-55
2023/10/06 00:15:38;;;;;;;;;;;;;;;10.11;92.09;101023.46;107716;275;96921;-54
2023/10/06 00:18:16;;;;;;;;;;;;;;;10.05;92.07;101024.77;107663;275;97504;-51
2023/10/06 00:20:56;;;;;;;;;;;;;;;9.99;92.05;101026.87;107650;275;121827;-54
2023/10/06 00:23:38;;;;;;;;;;;;;;;9.94;91.93;101028.16;107655;275;104180;-55
2023/10/06 00:26:16;;;;;;;;;;;;;;;9.89;92.08;101027.08;107683;275;114585;-57
2023/10/06 00:28:55;;;;;;;;;;;;;;;9.83;92.13;101024.93;107651;275;96822;-59
2023/10/06 00:31:32;;;;;;;;;;;;;;;9.78;92.10;101030.70;107662;275;96895;-53
2023/10/06 00:34:10;;;;;;;;;;;;;;;9.73;92.01;101032.85;107645;275;122465;-53
2023/10/06 00:36:51;;;;;;;;;;;;;;;9.67;92.09;101033.02;107704;275;105458;-55
2023/10/06 00:39:23;;;;;;;;;;;;;;;9.61;92.25;101031.50;107666;275;114693;-55
2023/10/06 00:42:02;;;;;;;;;;;;;;;9.57;92.18;101040.30;107643;275;97653;-55
2023/10/06 00:44:39;;;;;;;;;;;;;;;9.54;92.31;101042.92;107682;275;98093;-55
2023/10/06 00:47:17;;;;;;;;;;;;;;;9.50;92.30;101048.75;107711;275;122543;-54
2023/10/06 00:49:48;;;;;;;;;;;;;;;9.47;92.31;101055.93;107681;275;104200;-54
2023/10/06 00:52:25;;;;;;;;;;;;;;;9.41;92.41;101056.50;107706;275;114822;-59
2023/10/06 00:54:55;;;;;;;;;;;;;;;9.38;92.47;101058.96;107632;275;96096;-60
2023/10/06 00:57:33;;;;;;;;;;;;;;;9.33;92.56;101054.95;107686;275;97435;-57
2023/10/06 01:00:16;;;;;;;;;;;;;;;9.29;92.53;101058.25;107689;275;121153;-57
2023/10/06 01:02:52;;;;;;;;;;;;;;;9.27;92.69;101060.02;107664;275;103739;-53
2023/10/06 01:05:31;;;;;;;;;;;;;;;9.28;92.81;101057.06;107664;275;113794;-56
2023/10/06 01:08:11;;;;;;;;;;;;;;;9.27;92.97;101062.27;107629;276;97154;-59
2023/10/06 01:10:44;;;;;;;;;;;;;;;9.25;92.80;101066.16;107716;275;97529;-53
2023/10/06 01:13:27;;;;;;;;;;;;;;;9.28;92.97;101067.02;107654;275;121892;-53
2023/10/06 01:16:11;;;;;;;;;;;;;;;9.27;93.06;101069.73;107706;275;106065;-59
2023/10/06 01:18:52;;;;;;;;;;;;;;;9.27;93.04;101068.69;107690;275;113758;-59
2023/10/06 01:21:28;;;;;;;;;;;;;;;9.24;92.99;101072.02;107639;275;97014;-57
2023/10/06 01:24:11;;;;;;;;;;;;;;;9.19;93.07;101077.98;107671;275;97551;-58
2023/10/06 01:26:43;;;;;;;;;;;;;;;9.16;93.13;101081.59;107667;275;120443;-55
2023/10/06 01:29:14;;;;;;;;;;;;;;;9.13;93.04;101086.74;107638;275;106232;-55
2023/10/06 01:31:49;;;;;;;;;;;;;;;9.10;93.08;101090.81;107660;275;113775;-53
2023/10/06 01:34:20;;;;;;;;;;;;;;;9.09;93.17;101090.23;107693;275;95649;-53
2023/10/06 01:36:54;;;;;;;;;;;;;;;9.06;93.23;101092.73;107740;275;97008;-59
2023/10/06 01:39:31;;;;;;;;;;;;;;;9.03;93.29;101097.02;107668;275;121104;-58
2023/10/06 01:42:04;;;;;;;;;;;;;;;9.02;93.23;101102.70;107657;275;105741;-58
2023/10/06 01:44:42;;;;;;;;;;;;;;;9.01;93.41;101105.96;107603;275;115095;-59
2023/10/06 01:47:12;;;;;;;;;;;;;;;9.03;93.40;101111.03;107656;275;97078;-58
2023/10/06 01:49:48;;;;;;;;;;;;;;;9.00;93.53;101113.10;107639;275;96465;-57
2023/10/06 01:52:25;;;;;;;;;;;;;;;8.96;93.42;101118.00;107666;275;121939;-54
2023/10/06 01:55:03;;;;;;;;;;;;;;;8.96;93.55;101120.56;107691;275;105015;-55
2023/10/06 01:57:39;;;;;;;;;;;;;;;9.01;93.61;101123.25;107646;275;115486;-59
2023/10/06 02:00:16;;;;;;;;;;;;;;;9.06;93.86;101124.92;107641;275;96850;-58
2023/10/06 02:02:52;;;;;;;;;;;;;;;9.12;94.02;101125.66;107564;275;97239;-59
2023/10/06 02:05:31;;;;;;;;;;;;;;;9.19;93.98;101126.84;107752;275;121752;-58
2023/10/06 02:08:15;;;;;;;;;;;;;;;9.25;94.19;101125.88;107704;275;105927;-59
2023/10/06 02:10:50;;;;;;;;;;;;;;;9.31;94.20;101130.23;107651;275;114227;-54
2023/10/06 02:13:23;;;;;;;;;;;;;;;9.37;94.31;101127.13;107664;275;96647;-54
2023/10/06 02:16:03;;;;;;;;;;;;;;;9.43;94.43;101125.77;107675;275;97709;-57
2023/10/06 02:18:41;;;;;;;;;;;;;;;9.50;94.51;101125.00;107644;275;120664;-56
2023/10/06 02:21:20;;;;;;;;;;;;;;;9.56;94.66;101122.76;107652;275;104327;-59
2023/10/06 02:23:59;;;;;;;;;;;;;;;9.62;94.74;101127.13;107597;275;111724;-61
2023/10/06 02:26:36;;;;;;;;;;;;;;;9.68;94.76;101128.02;107619;275;96917;-55
2023/10/06 02:29:19;;;;;;;;;;;;;;;9.74;94.85;101127.80;107617;275;98055;-52
2023/10/06 02:32:01;;;;;;;;;;;;;;;9.79;95.06;101130.12;107598;275;121432;-55
2023/10/06 02:34:45;;;;;;;;;;;;;;;9.87;94.95;101131.55;107454;275;105800;-57
2023/10/06 02:37:23;;;;;;;;;;;;;;;9.93;94.87;101133.72;107640;275;113968;-54
2023/10/06 02:39:56;;;;;;;;;;;;;;;9.95;95.01;101130.85;107666;275;95974;-55
2023/10/06 02:42:41;;;;;;;;;;;;;;;9.98;94.91;101134.84;107803;275;96683;-59
2023/10/06 02:45:20;;;;;;;;;;;;;;;9.99;95.09;101134.36;107684;275;120811;-59
2023/10/06 02:47:52;;;;;;;;;;;;;;;10.02;95.11;101138.66;107711;275;104924;-55
2023/10/06 02:50:33;;;;;;;;;;;;;;;10.06;95.08;101140.52;107639;275;114363;-58
2023/10/06 02:53:20;;;;;;;;;;;;;;;10.10;95.12;101143.72;107722;275;95750;-60
2023/10/06 02:55:55;;;;;;;;;;;;;;;10.12;95.06;101149.47;107725;275;97603;-55
2023/10/06 02:58:30;;;;;;;;;;;;;;;10.14;95.08;101146.38;107652;275;122170;-54
2023/10/06 03:01:11;;;;;;;;;;;;;;;10.17;95.06;101148.08;107642;275;104437;-55
2023/10/06 03:04:04;;;;;;;;;;;;;;;10.17;94.92;101148.45;107450;275;114218;-54
2023/10/06 03:06:41;;;;;;;;;;;;;;;10.14;94.89;101150.75;107650;275;96891;-60
2023/10/06 03:09:14;;;;;;;;;;;;;;;10.08;94.74;101156.95;107768;275;95269;-61
2023/10/06 03:11:49;;;;;;;;;;;;;;;9.99;94.53;101159.31;107696;275;119949;-56
2023/10/06 03:14:38;;;;;;;;;;;;;;;9.90;94.21;101162.13;107700;275;104491;-56
2023/10/06 03:17:14;;;;;;;;;;;;;;;9.77;94.18;101161.39;107545;275;114554;-56
2023/10/06 03:19:56;;;;;;;;;;;;;;;9.68;94.05;101160.63;107671;275;97239;-56
2023/10/06 03:22:30;;;;;;;;;;;;;;;9.58;94.01;101157.74;107761;275;98292;-56
2023/10/06 03:25:00;;;;;;;;;;;;;;;9.51;94.08;101158.16;107650;275;121514;-56
2023/10/06 03:27:36;;;;;;;;;;;;;;;9.44;93.90;101165.65;107681;275;106123;-56
2023/10/06 03:30:18;;;;;;;;;;;;;;;9.38;94.00;101175.38;107700;275;114715;-55
2023/10/06 03:32:53;;;;;;;;;;;;;;;9.32;94.08;101178.88;107693;275;97190;-55
2023/10/06 03:35:36;;;;;;;;;;;;;;;9.28;94.28;101179.67;107723;275;97531;-57
2023/10/06 03:38:27;;;;;;;;;;;;;;;9.23;94.16;101175.85;107466;275;121567;-59
2023/10/06 03:41:18;;;;;;;;;;;;;;;9.19;94.10;101173.29;107656;275;105099;-59
2023/10/06 03:43:51;;;;;;;;;;;;;;;9.13;94.04;101176.11;107647;275;113284;-59
2023/10/06 03:46:35;;;;;;;;;;;;;;;9.07;94.08;101179.54;107684;275;97488;-59
2023/10/06 03:49:07;;;;;;;;;;;;;;;9.00;94.14;101180.52;107710;275;97351;-59
2023/10/06 03:51:40;;;;;;;;;;;;;;;8.97;94.11;101183.39;107679;275;122825;-59
2023/10/06 03:54:17;;;;;;;;;;;;;;;8.94;94.15;101184.58;107629;275;106076;-59
2023/10/06 03:56:58;;;;;;;;;;;;;;;8.93;94.28;101182.02;107690;275;115204;-55
2023/10/06 03:59:36;;;;;;;;;;;;;;;8.91;94.30;101189.17;107190;275;611941;-55
2023/10/06 04:02:08;;;;;;;;;;;;;;;8.91;94.41;101191.14;107657;275;96704;-55
2023/10/06 04:04:42;;;;;;;;;;;;;;;8.91;94.40;101187.33;107674;275;123230;-55
2023/10/06 04:07:14;;;;;;;;;;;;;;;8.93;94.63;101192.59;107681;275;104360;-57
2023/10/06 04:09:49;;;;;;;;;;;;;;;8.95;94.70;101196.61;107625;275;114690;-59
2023/10/06 04:12:24;;;;;;;;;;;;;;;8.98;94.71;101197.44;107700;275;95990;-55
2023/10/06 04:14:59;;;;;;;;;;;;;;;9.02;94.82;101195.95;107669;275;97714;-55
2023/10/06 04:17:32;;;;;;;;;;;;;;;9.05;94.91;101198.63;107663;275;120358;-54
2023/10/06 04:20:06;;;;;;;;;;;;;;;9.10;95.05;101202.09;107694;275;105818;-54
2023/10/06 04:22:43;;;;;;;;;;;;;;;9.15;95.23;101198.81;107728;275;113470;-59
2023/10/06 04:25:17;;;;;;;;;;;;;;;9.22;95.34;101204.17;107663;275;96640;-59
2023/10/06 04:27:55;;;;;;;;;;;;;;;9.29;95.49;101212.27;107658;275;97446;-55
2023/10/06 04:30:29;;;;;;;;;;;;;;;9.35;95.55;101219.16;107626;275;123145;-56
2023/10/06 04:33:03;;;;;;;;;;;;;;;9.41;95.67;101220.71;107683;275;105673;-55
2023/10/06 04:35:33;;;;;;;;;;;;;;;9.49;95.91;101219.86;107662;275;114814;-58
2023/10/06 04:38:05;;;;;;;;;;;;;;;9.56;95.76;101220.41;107660;275;97441;-57
2023/10/06 04:40:41;;;;;;;;;;;;;;;9.60;95.93;101217.76;107665;277;96920;-58
2023/10/06 04:43:17;;;;;;;;;;;;;;;9.64;95.95;101214.43;107631;275;121367;-59
2023/10/06 04:45:52;;;;;;;;;;;;;;;9.70;96.05;101218.87;107668;275;105029;-58
2023/10/06 04:48:29;;;;;;;;;;;;;;;9.72;95.95;101222.42;107596;275;114761;-58
2023/10/06 04:51:03;;;;;;;;;;;;;;;9.76;96.04;101227.89;107629;275;97356;-58
2023/10/06 04:53:37;;;;;;;;;;;;;;;9.78;96.00;101223.36;107656;275;98102;-58
2023/10/06 04:56:09;;;;;;;;;;;;;;;9.83;96.06;101217.27;107684;275;122311;-55
2023/10/06 04:58:40;;;;;;;;;;;;;;;9.83;96.05;101223.57;107735;275;103988;-54
2023/10/06 05:01:16;;;;;;;;;;;;;;;9.85;96.25;101226.41;107556;275;113671;-54
2023/10/06 05:03:50;;;;;;;;;;;;;;;9.88;96.30;101226.95;107714;275;96848;-54
2023/10/06 05:06:24;;;;;;;;;;;;;;;9.91;96.22;101222.98;107691;275;97821;-58
2023/10/06 05:09:06;;;;;;;;;;;;;;;9.96;96.24;101226.73;107694;275;122308;-57
2023/10/06 05:11:39;;;;;;;;;;;;;;;10.01;96.34;101229.15;107775;275;104975;-55
2023/10/06 05:14:13;;;;;;;;;;;;;;;10.02;96.32;101231.02;107676;275;113351;-53
2023/10/06 05:16:51;;;;;;;;;;;;;;;10.08;96.28;101233.95;107674;275;96835;-53
2023/10/06 05:19:24;;;;;;;;;;;;;;;10.15;96.32;101235.63;107622;275;95364;-55
2023/10/06 05:21:58;;;;;;;;;;;;;;;10.18;96.30;101234.40;107457;275;120397;-55
2023/10/06 05:24:37;;;;;;;;;;;;;;;10.21;96.16;101238.89;107649;275;105725;-55
2023/10/06 05:27:10;;;;;;;;;;;;;;;10.22;96.31;101241.80;107664;275;113765;-60
2023/10/06 05:29:46;;;;;;;;;;;;;;;10.22;96.41;101247.71;107573;275;94527;-59
2023/10/06 05:32:24;;;;;;;;;;;;;;;10.30;96.31;101258.46;107691;275;97829;-54
2023/10/06 05:34:58;;;;;;;;;;;;;;;10.34;96.41;101258.20;107657;275;120351;-54
2023/10/06 05:37:32;;;;;;;;;;;;;;;10.40;96.43;101268.27;107698;275;105335;-59
2023/10/06 05:40:03;;;;;;;;;;;;;;;10.42;96.35;101274.14;107680;275;115998;-60
2023/10/06 05:42:40;;;;;;;;;;;;;;;10.45;96.38;101274.07;107634;275;96197;-57
2023/10/06 05:45:18;;;;;;;;;;;;;;;10.48;96.36;101276.09;107626;275;96673;-58
2023/10/06 05:47:54;;;;;;;;;;;;;;;10.51;96.26;101281.41;107692;275;122452;-58
2023/10/06 05:50:29;;;;;;;;;;;;;;;10.53;96.30;101279.79;107722;275;105304;-55
2023/10/06 05:53:12;;;;;;;;;;;;;;;10.57;96.13;101282.63;107705;275;116110;-54
2023/10/06 05:55:49;;;;;;;;;;;;;;;10.59;95.92;101285.45;107674;275;95926;-60
2023/10/06 05:58:30;;;;;;;;;;;;;;;10.59;96.03;101282.67;107689;275;97485;-60
2023/10/06 06:01:10;;;;;;;;;;;;;;;10.65;95.98;101285.85;107735;275;121771;-55
2023/10/06 06:03:44;;;;;;;;;;;;;;;10.74;95.98;101281.86;107670;275;105835;-55
2023/10/06 06:06:22;;;;;;;;;;;;;;;10.82;95.94;101282.95;107635;275;113948;-58
2023/10/06 06:08:56;;;;;;;;;;;;;;;10.99;96.27;101284.55;107671;275;96561;-58
2023/10/06 06:11:28;;;;;;;;;;;;;;;11.11;96.03;101284.07;107656;275;98028;-54
2023/10/06 06:14:00;;;;;;;;;;;;;;;11.19;95.94;101285.18;107643;275;122083;-54
2023/10/06 06:16:36;;;;;;;;;;;;;;;11.31;95.71;101287.83;107688;275;105419;-59
2023/10/06 06:19:08;;;;;;;;;;;;;;;11.36;95.78;101289.26;107593;275;114935;-59
2023/10/06 06:21:44;;;;;;;;;;;;;;;11.39;95.68;101289.80;107673;275;97000;-57
2023/10/06 06:24:22;;;;;;;;;;;;;;;11.44;95.39;101294.83;107636;275;96557;-57
2023/10/06 06:27:01;;;;;;;;;;;;;;;11.45;95.22;101297.94;107642;275;122001;-57
2023/10/06 06:29:34;;;;;;;;;;;;;;;11.50;95.16;101300.96;107665;275;105708;-58
2023/10/06 06:32:17;;;;;;;;;;;;;;;11.56;95.17;101299.88;107676;275;114283;-55
2023/10/06 06:34:48;;;;;;;;;;;;;;;11.59;94.93;101304.50;107650;275;97444;-55
2023/10/06 06:37:23;;;;;;;;;;;;;;;11.61;94.84;101310.71;107716;275;97288;-60
2023/10/06 06:40:10;;;;;;;;;;;;;;;11.59;94.85;101310.96;107590;275;122262;-60
2023/10/06 06:42:41;;;;;;;;;;;;;;;11.59;94.54;101312.71;107575;275;107630;-60
2023/10/06 06:45:15;;;;;;;;;;;;;;;11.59;94.31;101312.00;107709;275;113658;-60
2023/10/06 06:47:47;;;;;;;;;;;;;;;11.60;94.26;101316.23;107710;275;96940;-54
2023/10/06 06:50:21;;;;;;;;;;;;;;;11.60;94.20;101318.46;107663;275;97398;-54
2023/10/06 06:52:56;;;;;;;;;;;;;;;11.54;94.01;101315.46;107619;275;119250;-55
2023/10/06 06:55:29;;;;;;;;;;;;;;;11.51;94.12;101315.61;107656;275;105474;-54
2023/10/06 06:58:06;;;;;;;;;;;;;;;11.53;94.14;101313.40;107652;275;113585;-61
2023/10/06 07:00:42;;;;;;;;;;;;;;;11.58;94.14;101313.36;107671;275;97202;-60
2023/10/06 07:03:18;;;;;;;;;;;;;;;11.74;93.88;101314.52;107517;275;99330;-60
2023/10/06 07:05:56;;;;;;;;;;;;;;;11.81;93.76;101313.99;107658;275;120948;-60
2023/10/06 07:08:33;;;;;;;;;;;;;;;11.84;93.68;101314.77;107676;275;105581;-60
2023/10/06 07:11:10;;;;;;;;;;;;;;;11.93;93.79;101318.98;107687;275;115151;-55
2023/10/06 07:13:46;;;;;;;;;;;;;;;12.01;93.85;101324.50;107687;275;95917;-55
2023/10/06 07:16:24;;;;;;;;;;;;;;;12.10;93.59;101328.52;107693;275;96476;-60
2023/10/06 07:18:59;;;;;;;;;;;;;;;12.19;93.30;101327.59;107666;275;123484;-59
2023/10/06 07:21:33;;;;;;;;;;;;;;;12.25;93.37;101326.96;107702;275;105896;-55
2023/10/06 07:24:06;;;;;;;;;;;;;;;12.35;93.09;101330.29;107633;275;113191;-55
2023/10/06 07:26:36;;;;;;;;;;;;;;;12.37;92.89;101325.52;107677;275;96522;-60
2023/10/06 07:29:10;;;;;;;;;;;;;;;12.41;92.78;101327.54;107629;275;96204;-60
2023/10/06 07:31:48;;;;;;;;;;;;;;;12.47;92.53;101329.23;107686;272;121796;-55
2023/10/06 07:34:25;;;;;;;;;;;;;;;12.54;92.20;101334.98;107537;275;105165;-55
2023/10/06 07:37:02;;;;;;;;;;;;;;;12.55;91.99;101338.27;107650;275;114388;-55
2023/10/06 07:39:36;;;;;;;;;;;;;;;12.58;91.52;101341.20;107632;275;97583;-55
2023/10/06 07:42:16;;;;;;;;;;;;;;;12.59;91.45;101340.85;107702;275;96577;-54
2023/10/06 07:44:49;;;;;;;;;;;;;;;12.63;91.18;101340.92;107712;275;120549;-56
2023/10/06 07:47:26;;;;;;;;;;;;;;;12.69;90.99;101338.95;107678;275;105273;-57
2023/10/06 07:50:05;;;;;;;;;;;;;;;12.76;91.01;101338.09;107667;275;114068;-58
2023/10/06 07:52:36;;;;;;;;;;;;;;;12.79;90.78;101337.72;107698;275;95240;-56
2023/10/06 07:55:21;;;;;;;;;;;;;;;12.83;90.93;101337.63;107687;275;99109;-56
2023/10/06 07:57:55;;;;;;;;;;;;;;;12.83;90.46;101341.02;107637;275;121256;-54
2023/10/06 08:00:32;;;;;;;;;;;;;;;12.79;90.17;101343.77;107730;275;106281;-57
2023/10/06 08:03:05;;;;;;;;;;;;;;;12.76;90.03;101344.21;107669;275;114659;-58
2023/10/06 08:05:40;;;;;;;;;;;;;;;12.77;89.88;101346.14;107695;275;94443;-58
2023/10/06 08:08:13;;;;;;;;;;;;;;;12.72;89.99;101345.77;107693;275;96821;-58
2023/10/06 08:10:49;;;;;;;;;;;;;;;12.76;90.07;101341.92;107702;275;121674;-55
2023/10/06 08:13:23;;;;;;;;;;;;;;;12.83;90.06;101341.80;107546;275;106044;-54
2023/10/06 08:15:56;;;;;;;;;;;;;;;12.89;90.09;101337.58;107670;275;114686;-61
2023/10/06 08:18:29;;;;;;;;;;;;;;;12.91;89.84;101336.31;107679;275;95772;-61
2023/10/06 08:21:06;;;;;;;;;;;;;;;12.89;89.57;101341.71;107738;275;97362;-54
2023/10/06 08:23:43;;;;;;;;;;;;;;;12.86;89.33;101348.50;107694;275;121003;-54
2023/10/06 08:26:14;;;;;;;;;;;;;;;12.78;89.38;101348.68;107676;275;105070;-59
2023/10/06 08:28:51;;;;;;;;;;;;;;;12.80;89.32;101350.96;107622;275;115095;-59
2023/10/06 08:31:30;;;;;;;;;;;;;;;12.82;89.40;101353.06;107642;275;97080;-54
2023/10/06 08:34:05;;;;;;;;;;;;;;;12.77;89.39;101358.17;107716;275;96713;-54
2023/10/06 08:36:41;;;;;;;;;;;;;;;12.82;89.16;101353.52;107645;275;122218;-54
2023/10/06 08:39:13;;;;;;;;;;;;;;;12.82;88.50;101353.59;107703;275;106068;-54
2023/10/06 08:41:46;;;;;;;;;;;;;;;12.85;88.29;101355.41;107676;275;113203;-58
2023/10/06 08:44:23;;;;;;;;;;;;;;;12.89;88.29;101354.46;107662;275;96772;-57
2023/10/06 08:47:01;;;;;;;;;;;;;;;12.85;88.28;101349.81;107713;275;97458;-56
2023/10/06 08:49:40;;;;;;;;;;;;;;;12.82;88.32;101355.83;107704;275;121365;-55
2023/10/06 08:52:22;;;;;;;;;;;;;;;12.81;88.07;101352.34;107693;275;106010;-54
2023/10/06 08:54:57;;;;;;;;;;;;;;;12.85;87.92;101349.89;107670;275;113142;-53
2023/10/06 08:57:34;;;;;;;;;;;;;;;12.88;88.15;101350.73;107666;275;96041;-60
2023/10/06 09:00:07;;;;;;;;;;;;;;;12.88;87.89;101350.43;107685;275;97647;-60
2023/10/06 09:02:43;;;;;;;;;;;;;;;12.93;88.31;101346.23;107699;275;121630;-57
2023/10/06 09:05:14;;;;;;;;;;;;;;;12.93;88.15;101345.81;107644;275;104129;-57
2023/10/06 09:08:00;;;;;;;;;;;;;;;12.86;88.03;101350.23;107670;275;113517;-55
2023/10/06 09:10:36;;;;;;;;;;;;;;;12.86;87.81;101345.61;107656;275;96834;-56
2023/10/06 09:13:11;;;;;;;;;;;;;;;12.88;87.61;101350.81;107730;275;96751;-55
2023/10/06 09:15:59;;;;;;;;;;;;;;;12.88;87.83;101346.40;107684;277;121357;-57
2023/10/06 09:18:38;;;;;;;;;;;;;;;12.92;87.87;101341.96;107781;275;103609;-56
2023/10/06 09:21:15;;;;;;;;;;;;;;;12.96;87.50;101341.54;107735;275;112406;-60
2023/10/06 09:23:50;;;;;;;;;;;;;;;12.98;87.33;101341.98;107698;275;97519;-60
2023/10/06 09:26:35;;;;;;;;;;;;;;;13.00;87.33;101340.91;107729;275;95177;-57
2023/10/06 09:29:14;;;;;;;;;;;;;;;13.06;87.62;101343.39;107626;275;121931;-58
2023/10/06 09:31:51;;;;;;;;;;;;;;;13.10;87.13;101340.37;107696;275;104977;-56
2023/10/06 09:34:32;;;;;;;;;;;;;;;13.08;86.90;101335.93;107608;275;115049;-56
2023/10/06 09:37:21;;;;;;;;;;;;;;;13.07;86.91;101334.63;107667;275;95314;-58
2023/10/06 09:40:19;;;;;;;;;;;;;;;13.04;86.95;101334.39;107658;275;96992;-58
2023/10/06 09:42:54;;;;;;;;;;;;;;;13.00;87.06;101337.56;107714;275;121281;-55
2023/10/06 09:45:30;;;;;;;;;;;;;;;13.01;86.74;101336.40;107710;275;104155;-55
2023/10/06 09:48:08;;;;;;;;;;;;;;;13.06;86.87;101334.19;107731;275;113026;-54
2023/10/06 09:50:41;;;;;;;;;;;;;;;13.17;87.07;101339.21;107519;275;95587;-58
2023/10/06 09:53:13;;;;;;;;;;;;;;;13.27;87.27;101334.20;107697;275;96971;-57
2023/10/06 09:55:52;;;;;;;;;;;;;;;13.38;86.96;101331.79;107715;275;120904;-59
2023/10/06 09:58:30;;;;;;;;;;;;;;;13.43;86.73;101332.91;107666;275;105410;-57
2023/10/06 10:01:01;;;;;;;;;;;;;;;13.48;87.07;101323.95;107673;275;113639;-56
2023/10/06 10:03:34;;;;;;;;;;;;;;;13.55;86.82;101318.23;107658;275;96572;-56
2023/10/06 10:06:10;;;;;;;;;;;;;;;13.56;86.41;101309.16;107678;275;97254;-54
2023/10/06 10:08:47;;;;;;;;;;;;;;;13.59;86.35;101302.14;107677;275;121429;-54
2023/10/06 10:11:28;;;;;;;;;;;;;;;13.57;86.35;101297.38;107732;275;104166;-60
2023/10/06 10:14:36;;;;;;;;;;;;;;;13.60;86.16;101296.45;107669;275;113623;-60
2023/10/06 10:17:24;;;;;;;;;;;;;;;13.79;86.35;101295.98;107712;275;96248;-53
2023/10/06 10:20:06;;;;;;;;;;;;;;;13.90;85.91;101293.24;107702;275;97255;-53
2023/10/06 10:22:45;;;;;;;;;;;;;;;14.02;85.73;101289.80;107737;275;121778;-54
2023/10/06 10:25:19;;;;;;;;;;;;;;;14.18;85.88;101289.34;107752;275;105360;-54
2023/10/06 10:28:13;;;;;;;;;;;;;;;14.32;85.35;101284.78;107654;275;114255;-60
2023/10/06 10:30:56;;;;;;;;;;;;;;;14.37;85.15;101280.34;107636;275;95844;-54
2023/10/06 10:33:34;;;;;;;;;;;;;;;14.50;84.70;101284.46;107672;275;98045;-53
2023/10/06 10:36:23;;;;;;;;;;;;;;;14.56;84.68;101280.25;107648;275;121249;-58
2023/10/06 10:39:12;;;;;;;;;;;;;;;14.62;84.75;101277.06;107720;275;106174;-58
2023/10/06 10:41:48;;;;;;;;;;;;;;;14.78;84.26;101278.46;107652;275;112689;-57
2023/10/06 10:44:25;;;;;;;;;;;;;;;14.91;84.05;101276.64;107654;275;95851;-57
2023/10/06 10:47:06;;;;;;;;;;;;;;;15.00;84.08;101269.08;107684;275;96818;-55
2023/10/06 10:49:36;;;;;;;;;;;;;;;15.19;83.67;101273.18;107750;275;122525;-55
2023/10/06 10:52:14;;;;;;;;;;;;;;;15.32;83.38;101269.85;107676;275;104706;-58
2023/10/06 10:54:51;;;;;;;;;;;;;;;15.42;82.88;101269.50;107681;275;113457;-59
2023/10/06 10:57:28;;;;;;;;;;;;;;;15.39;82.46;101271.77;107674;275;96316;-54
2023/10/06 11:00:14;;;;;;;;;;;;;;;15.39;82.36;101280.30;107665;275;98154;-54
2023/10/06 11:03:01;;;;;;;;;;;;;;;15.43;82.03;101278.14;107701;269;121121;-54
2023/10/06 11:05:39;;;;;;;;;;;;;;;15.54;81.66;101277.16;107632;275;105289;-62
2023/10/06 11:08:15;;;;;;;;;;;;;;;15.66;80.71;101272.28;107614;275;114331;-58
2023/10/06 11:11:03;;;;;;;;;;;;;;;15.72;80.91;101270.89;107685;275;93235;-59
2023/10/06 11:13:39;;;;;;;;;;;;;;;15.83;80.73;101271.33;107685;275;97557;-60
2023/10/06 11:16:18;;;;;;;;;;;;;;;15.97;80.76;101266.52;107662;275;120714;-54
2023/10/06 11:18:50;;;;;;;;;;;;;;;16.02;80.55;101266.25;107685;275;105478;-54
2023/10/06 11:21:26;;;;;;;;;;;;;;;16.12;80.29;101265.77;107692;275;115038;-54
2023/10/06 11:24:05;;;;;;;;;;;;;;;16.17;79.87;101263.08;107743;275;93363;-55
2023/10/06 11:26:35;;;;;;;;;;;;;;;16.22;79.98;101257.30;107737;275;97990;-54
2023/10/06 11:29:05;;;;;;;;;;;;;;;16.29;79.57;101247.96;107686;275;121173;-54
2023/10/06 11:31:50;;;;;;;;;;;;;;;16.32;79.22;101244.23;107730;275;105478;-56
2023/10/06 11:34:24;;;;;;;;;;;;;;;16.22;78.73;101234.40;107695;275;113520;-56
2023/10/06 11:36:56;;;;;;;;;;;;;;;16.13;78.67;101223.05;107648;275;94226;-58
2023/10/06 11:39:29;;;;;;;;;;;;;;;16.10;78.28;101215.11;107725;275;96392;-58
2023/10/06 11:42:32;;;;;;;;;;;;;;;16.13;77.88;101204.81;107485;275;122633;-59
2023/10/06 11:45:11;;;;;;;;;;;;;;;16.16;77.70;101196.77;107724;275;104624;-58
2023/10/06 11:47:48;;;;;;;;;;;;;;;16.17;77.33;101189.85;107730;275;115692;-55
2023/10/06 11:50:32;;;;;;;;;;;;;;;16.25;77.34;101188.44;107726;275;93434;-56
2023/10/06 11:53:05;;;;;;;;;;;;;;;16.38;77.16;101178.77;107696;275;96534;-56
2023/10/06 11:55:44;;;;;;;;;;;;;;;16.46;76.51;101182.24;107700;275;120473;-54
2023/10/06 11:58:30;;;;;;;;;;;;;;;16.49;76.45;101178.48;107077;275;751998;-55
2023/10/06 12:01:06;;;;;;;;;;;;;;;16.62;76.55;101171.80;107601;275;113549;-60
2023/10/06 12:03:39;;;;;;;;;;;;;;;16.76;76.59;101167.34;107666;275;93703;-60
2023/10/06 12:06:15;;;;;;;;;;;;;;;16.88;76.27;101164.48;107693;275;98077;-58
2023/10/06 12:08:52;;;;;;;;;;;;;;;16.86;76.20;101167.47;107626;275;121445;-58
2023/10/06 12:11:26;;;;;;;;;;;;;;;16.88;75.61;101163.43;107676;275;104303;-54
2023/10/06 12:14:00;;;;;;;;;;;;;;;16.95;75.90;101163.12;107627;275;114597;-54
2023/10/06 12:16:36;;;;;;;;;;;;;;;16.96;75.11;101154.39;107679;275;94315;-55
2023/10/06 12:19:13;;;;;;;;;;;;;;;16.94;74.97;101151.88;107742;275;97314;-54
2023/10/06 12:21:48;;;;;;;;;;;;;;;17.01;75.02;101150.22;107735;275;122351;-56
2023/10/06 12:24:25;;;;;;;;;;;;;;;16.99;74.91;101142.50;107675;275;104560;-56
2023/10/06 12:27:01;;;;;;;;;;;;;;;16.98;74.70;101138.90;107719;275;114791;-61
2023/10/06 12:29:34;;;;;;;;;;;;;;;16.96;74.07;101129.45;107680;275;94883;-61
2023/10/06 12:32:08;;;;;;;;;;;;;;;16.89;74.13;101124.21;107684;275;97884;-59
2023/10/06 12:34:38;;;;;;;;;;;;;;;16.92;73.79;101123.20;107649;275;121541;-58
2023/10/06 12:37:19;;;;;;;;;;;;;;;16.94;73.42;101119.67;107650;275;105759;-58
2023/10/06 12:40:00;;;;;;;;;;;;;;;17.01;73.48;101121.08;107645;275;113679;-58
2023/10/06 12:42:34;;;;;;;;;;;;;;;17.11;72.82;101123.07;107503;275;96912;-60
2023/10/06 12:45:12;;;;;;;;;;;;;;;17.06;72.47;101113.26;107691;275;97141;-60
2023/10/06 12:47:46;;;;;;;;;;;;;;;16.95;71.59;101115.52;107736;275;122169;-59
2023/10/06 12:50:29;;;;;;;;;;;;;;;16.86;71.96;101109.16;107675;275;104389;-59
2023/10/06 12:53:04;;;;;;;;;;;;;;;16.83;72.14;101100.34;107675;275;113800;-60
2023/10/06 12:55:41;;;;;;;;;;;;;;;16.80;71.75;101097.20;107666;275;93163;-59
2023/10/06 12:58:17;;;;;;;;;;;;;;;16.75;71.57;101091.23;107505;277;96177;-59
2023/10/06 13:00:49;;;;;;;;;;;;;;;16.83;71.89;101087.27;107596;275;120409;-59
2023/10/06 13:03:21;;;;;;;;;;;;;;;16.90;71.90;101082.55;107633;275;105693;-56
2023/10/06 13:06:02;;;;;;;;;;;;;;;16.90;71.25;101075.67;107650;275;114089;-61
2023/10/06 13:08:38;;;;;;;;;;;;;;;16.77;71.21;101074.70;107662;275;94687;-62
2023/10/06 13:11:10;;;;;;;;;;;;;;;16.71;71.32;101070.27;107717;275;95339;-55
2023/10/06 13:13:49;;;;;;;;;;;;;;;16.69;71.03;101062.71;107633;275;121230;-55
2023/10/06 13:16:20;;;;;;;;;;;;;;;16.65;70.96;101058.82;107700;275;104753;-61
2023/10/06 13:18:55;;;;;;;;;;;;;;;16.62;70.53;101054.41;107701;275;114791;-61
2023/10/06 13:21:33;;;;;;;;;;;;;;;16.59;69.87;101050.86;107745;275;95054;-55
2023/10/06 13:24:07;;;;;;;;;;;;;;;16.53;69.81;101035.18;107735;275;97330;-55